<?xml version="1.0" encoding="UTF-8" standalone="no" ?>
<gpx xmlns="http://www.topografix.com/GPX/1/1" xmlns:xsi="http://www.w3.org/2001/XMLSchema-instance" xsi:schemaLocation="http://www.topografix.com/GPX/1/1 http://www.topografix.com/GPX/1/1/gpx.xsd" version="1.1" creator="VisuGPX - https://www.visugpx.com">
  <metadata>
    <name>Sortie du 28 octobre 2024</name>
    <desc><![CDATA[

Plouisy - Plouisy]]></desc>
  </metadata>
  <trk>
    <name><![CDATA[
    ]]></name>
    <trkseg>
      <trkpt lat="48.57687" lon="-3.18914">
        <ele>138.2</ele>
        <time>2024-10-28T13:50:23.000Z</time>
      </trkpt>
      <trkpt lat="48.57686" lon="-3.18906">
        <ele>137.9</ele>
        <time>2024-10-28T13:50:25.000Z</time>
      </trkpt>
      <trkpt lat="48.57685" lon="-3.18895">
        <ele>137.5</ele>
        <time>2024-10-28T13:50:28.000Z</time>
      </trkpt>
      <trkpt lat="48.57684" lon="-3.18886">
        <ele>137.3</ele>
        <time>2024-10-28T13:50:30.000Z</time>
      </trkpt>
      <trkpt lat="48.57683" lon="-3.18871">
        <ele>138.4</ele>
        <time>2024-10-28T13:50:33.000Z</time>
      </trkpt>
      <trkpt lat="48.57681" lon="-3.18835">
        <ele>137.4</ele>
        <time>2024-10-28T13:50:40.000Z</time>
      </trkpt>
      <trkpt lat="48.57701" lon="-3.18806">
        <ele>137</ele>
        <time>2024-10-28T13:50:49.000Z</time>
      </trkpt>
      <trkpt lat="48.57702" lon="-3.18777">
        <ele>136.8</ele>
        <time>2024-10-28T13:50:55.000Z</time>
      </trkpt>
      <trkpt lat="48.57701" lon="-3.18752">
        <ele>137</ele>
        <time>2024-10-28T13:50:59.000Z</time>
      </trkpt>
      <trkpt lat="48.57706" lon="-3.18688">
        <ele>136.6</ele>
        <time>2024-10-28T13:51:11.000Z</time>
      </trkpt>
      <trkpt lat="48.57692" lon="-3.18671">
        <ele>136.4</ele>
        <time>2024-10-28T13:51:17.000Z</time>
      </trkpt>
      <trkpt lat="48.57641" lon="-3.18668">
        <ele>134.6</ele>
        <time>2024-10-28T13:51:32.000Z</time>
      </trkpt>
      <trkpt lat="48.57628" lon="-3.18675">
        <ele>134.4</ele>
        <time>2024-10-28T13:51:36.000Z</time>
      </trkpt>
      <trkpt lat="48.57603" lon="-3.18689">
        <ele>134</ele>
        <time>2024-10-28T13:51:42.000Z</time>
      </trkpt>
      <trkpt lat="48.57594" lon="-3.18693">
        <ele>133.8</ele>
        <time>2024-10-28T13:51:44.000Z</time>
      </trkpt>
      <trkpt lat="48.57563" lon="-3.18712">
        <ele>134</ele>
        <time>2024-10-28T13:51:51.000Z</time>
      </trkpt>
      <trkpt lat="48.57545" lon="-3.18723">
        <ele>134.2</ele>
        <time>2024-10-28T13:51:55.000Z</time>
      </trkpt>
      <trkpt lat="48.57536" lon="-3.18729">
        <ele>134.2</ele>
        <time>2024-10-28T13:51:58.000Z</time>
      </trkpt>
      <trkpt lat="48.57499" lon="-3.18752">
        <ele>134.6</ele>
        <time>2024-10-28T13:52:06.000Z</time>
      </trkpt>
      <trkpt lat="48.57489" lon="-3.18757">
        <ele>134.6</ele>
        <time>2024-10-28T13:52:08.000Z</time>
      </trkpt>
      <trkpt lat="48.57468" lon="-3.18766">
        <ele>134.6</ele>
        <time>2024-10-28T13:52:12.000Z</time>
      </trkpt>
      <trkpt lat="48.57457" lon="-3.18769">
        <ele>134.6</ele>
        <time>2024-10-28T13:52:14.000Z</time>
      </trkpt>
      <trkpt lat="48.57445" lon="-3.18771">
        <ele>134.6</ele>
        <time>2024-10-28T13:52:16.000Z</time>
      </trkpt>
      <trkpt lat="48.57433" lon="-3.18774">
        <ele>134.4</ele>
        <time>2024-10-28T13:52:18.000Z</time>
      </trkpt>
      <trkpt lat="48.57412" lon="-3.18781">
        <ele>134.2</ele>
        <time>2024-10-28T13:52:21.000Z</time>
      </trkpt>
      <trkpt lat="48.57367" lon="-3.1879">
        <ele>133.4</ele>
        <time>2024-10-28T13:52:28.000Z</time>
      </trkpt>
      <trkpt lat="48.57354" lon="-3.18793">
        <ele>133</ele>
        <time>2024-10-28T13:52:30.000Z</time>
      </trkpt>
      <trkpt lat="48.5734" lon="-3.18796">
        <ele>132.8</ele>
        <time>2024-10-28T13:52:32.000Z</time>
      </trkpt>
      <trkpt lat="48.57319" lon="-3.18801">
        <ele>132.2</ele>
        <time>2024-10-28T13:52:35.000Z</time>
      </trkpt>
      <trkpt lat="48.5729" lon="-3.18809">
        <ele>131.4</ele>
        <time>2024-10-28T13:52:39.000Z</time>
      </trkpt>
      <trkpt lat="48.57261" lon="-3.18825">
        <ele>130.8</ele>
        <time>2024-10-28T13:52:43.000Z</time>
      </trkpt>
      <trkpt lat="48.57243" lon="-3.18845">
        <ele>130.2</ele>
        <time>2024-10-28T13:52:46.000Z</time>
      </trkpt>
      <trkpt lat="48.57223" lon="-3.18883">
        <ele>130</ele>
        <time>2024-10-28T13:52:50.000Z</time>
      </trkpt>
      <trkpt lat="48.57207" lon="-3.18957">
        <ele>130.6</ele>
        <time>2024-10-28T13:52:57.000Z</time>
      </trkpt>
      <trkpt lat="48.57205" lon="-3.18977">
        <ele>131</ele>
        <time>2024-10-28T13:52:59.000Z</time>
      </trkpt>
      <trkpt lat="48.57207" lon="-3.19015">
        <ele>131.2</ele>
        <time>2024-10-28T13:53:03.000Z</time>
      </trkpt>
      <trkpt lat="48.57214" lon="-3.19048">
        <ele>130.6</ele>
        <time>2024-10-28T13:53:06.000Z</time>
      </trkpt>
      <trkpt lat="48.57223" lon="-3.19071">
        <ele>129.8</ele>
        <time>2024-10-28T13:53:08.000Z</time>
      </trkpt>
      <trkpt lat="48.57236" lon="-3.19093">
        <ele>129</ele>
        <time>2024-10-28T13:53:10.000Z</time>
      </trkpt>
      <trkpt lat="48.5725" lon="-3.19114">
        <ele>128.4</ele>
        <time>2024-10-28T13:53:12.000Z</time>
      </trkpt>
      <trkpt lat="48.57282" lon="-3.19165">
        <ele>127.8</ele>
        <time>2024-10-28T13:53:17.000Z</time>
      </trkpt>
      <trkpt lat="48.57294" lon="-3.19183">
        <ele>127.8</ele>
        <time>2024-10-28T13:53:19.000Z</time>
      </trkpt>
      <trkpt lat="48.57307" lon="-3.1921">
        <ele>128</ele>
        <time>2024-10-28T13:53:22.000Z</time>
      </trkpt>
      <trkpt lat="48.57313" lon="-3.1923">
        <ele>128</ele>
        <time>2024-10-28T13:53:24.000Z</time>
      </trkpt>
      <trkpt lat="48.57317" lon="-3.1925">
        <ele>128.4</ele>
        <time>2024-10-28T13:53:26.000Z</time>
      </trkpt>
      <trkpt lat="48.57321" lon="-3.19271">
        <ele>129</ele>
        <time>2024-10-28T13:53:28.000Z</time>
      </trkpt>
      <trkpt lat="48.57325" lon="-3.19291">
        <ele>129.6</ele>
        <time>2024-10-28T13:53:30.000Z</time>
      </trkpt>
      <trkpt lat="48.57329" lon="-3.19309">
        <ele>130.2</ele>
        <time>2024-10-28T13:53:32.000Z</time>
      </trkpt>
      <trkpt lat="48.57333" lon="-3.19327">
        <ele>131</ele>
        <time>2024-10-28T13:53:34.000Z</time>
      </trkpt>
      <trkpt lat="48.57337" lon="-3.19351">
        <ele>131.8</ele>
        <time>2024-10-28T13:53:37.000Z</time>
      </trkpt>
      <trkpt lat="48.57342" lon="-3.19373">
        <ele>132.8</ele>
        <time>2024-10-28T13:53:40.000Z</time>
      </trkpt>
      <trkpt lat="48.57356" lon="-3.19455">
        <ele>135.6</ele>
        <time>2024-10-28T13:53:53.000Z</time>
      </trkpt>
      <trkpt lat="48.57349" lon="-3.1948">
        <ele>136.4</ele>
        <time>2024-10-28T13:53:57.000Z</time>
      </trkpt>
      <trkpt lat="48.57318" lon="-3.19515">
        <ele>137.6</ele>
        <time>2024-10-28T13:54:05.000Z</time>
      </trkpt>
      <trkpt lat="48.57239" lon="-3.19578">
        <ele>137.8</ele>
        <time>2024-10-28T13:54:22.000Z</time>
      </trkpt>
      <trkpt lat="48.57186" lon="-3.19646">
        <ele>135.2</ele>
        <time>2024-10-28T13:54:32.000Z</time>
      </trkpt>
      <trkpt lat="48.57151" lon="-3.19735">
        <ele>133.4</ele>
        <time>2024-10-28T13:54:40.000Z</time>
      </trkpt>
      <trkpt lat="48.57122" lon="-3.19858">
        <ele>132.8</ele>
        <time>2024-10-28T13:54:51.000Z</time>
      </trkpt>
      <trkpt lat="48.57087" lon="-3.19899">
        <ele>132.6</ele>
        <time>2024-10-28T13:54:58.000Z</time>
      </trkpt>
      <trkpt lat="48.56991" lon="-3.19942">
        <ele>127.8</ele>
        <time>2024-10-28T13:55:12.000Z</time>
      </trkpt>
      <trkpt lat="48.56936" lon="-3.1997">
        <ele>122.8</ele>
        <time>2024-10-28T13:55:20.000Z</time>
      </trkpt>
      <trkpt lat="48.56916" lon="-3.20018">
        <ele>121.4</ele>
        <time>2024-10-28T13:55:25.000Z</time>
      </trkpt>
      <trkpt lat="48.56903" lon="-3.20155">
        <ele>122.8</ele>
        <time>2024-10-28T13:55:39.000Z</time>
      </trkpt>
      <trkpt lat="48.56924" lon="-3.20216">
        <ele>125.2</ele>
        <time>2024-10-28T13:55:50.000Z</time>
      </trkpt>
      <trkpt lat="48.56923" lon="-3.20279">
        <ele>127.4</ele>
        <time>2024-10-28T13:56:00.000Z</time>
      </trkpt>
      <trkpt lat="48.56917" lon="-3.20317">
        <ele>129</ele>
        <time>2024-10-28T13:56:06.000Z</time>
      </trkpt>
      <trkpt lat="48.56914" lon="-3.20349">
        <ele>130</ele>
        <time>2024-10-28T13:56:11.000Z</time>
      </trkpt>
      <trkpt lat="48.56907" lon="-3.20411">
        <ele>131.8</ele>
        <time>2024-10-28T13:56:21.000Z</time>
      </trkpt>
      <trkpt lat="48.56915" lon="-3.20493">
        <ele>133.2</ele>
        <time>2024-10-28T13:56:35.000Z</time>
      </trkpt>
      <trkpt lat="48.56944" lon="-3.20576">
        <ele>135.2</ele>
        <time>2024-10-28T13:56:52.000Z</time>
      </trkpt>
      <trkpt lat="48.56977" lon="-3.20662">
        <ele>137</ele>
        <time>2024-10-28T13:57:08.000Z</time>
      </trkpt>
      <trkpt lat="48.57002" lon="-3.20729">
        <ele>139.8</ele>
        <time>2024-10-28T13:57:21.000Z</time>
      </trkpt>
      <trkpt lat="48.57005" lon="-3.20737">
        <ele>140.4</ele>
        <time>2024-10-28T13:57:23.000Z</time>
      </trkpt>
      <trkpt lat="48.57008" lon="-3.20746">
        <ele>141</ele>
        <time>2024-10-28T13:57:25.000Z</time>
      </trkpt>
      <trkpt lat="48.57019" lon="-3.20776">
        <ele>142.4</ele>
        <time>2024-10-28T13:57:32.000Z</time>
      </trkpt>
      <trkpt lat="48.57041" lon="-3.20842">
        <ele>144</ele>
        <time>2024-10-28T13:57:48.000Z</time>
      </trkpt>
      <trkpt lat="48.57073" lon="-3.20904">
        <ele>144.4</ele>
        <time>2024-10-28T13:58:01.000Z</time>
      </trkpt>
      <trkpt lat="48.57129" lon="-3.20971">
        <ele>145.8</ele>
        <time>2024-10-28T13:58:17.000Z</time>
      </trkpt>
      <trkpt lat="48.57177" lon="-3.21043">
        <ele>148</ele>
        <time>2024-10-28T13:58:33.000Z</time>
      </trkpt>
      <trkpt lat="48.57221" lon="-3.21115">
        <ele>148.8</ele>
        <time>2024-10-28T13:58:49.000Z</time>
      </trkpt>
      <trkpt lat="48.57261" lon="-3.21189">
        <ele>148.6</ele>
        <time>2024-10-28T13:59:03.000Z</time>
      </trkpt>
      <trkpt lat="48.57327" lon="-3.21273">
        <ele>146.4</ele>
        <time>2024-10-28T13:59:20.000Z</time>
      </trkpt>
      <trkpt lat="48.57371" lon="-3.21326">
        <ele>144.6</ele>
        <time>2024-10-28T13:59:31.000Z</time>
      </trkpt>
      <trkpt lat="48.57397" lon="-3.21444">
        <ele>144.6</ele>
        <time>2024-10-28T13:59:44.000Z</time>
      </trkpt>
      <trkpt lat="48.57386" lon="-3.21544">
        <ele>145</ele>
        <time>2024-10-28T13:59:54.000Z</time>
      </trkpt>
      <trkpt lat="48.57395" lon="-3.21605">
        <ele>144.8</ele>
        <time>2024-10-28T14:00:00.000Z</time>
      </trkpt>
      <trkpt lat="48.57455" lon="-3.21774">
        <ele>143.4</ele>
        <time>2024-10-28T14:00:16.000Z</time>
      </trkpt>
      <trkpt lat="48.57511" lon="-3.21931">
        <ele>143.4</ele>
        <time>2024-10-28T14:00:31.000Z</time>
      </trkpt>
      <trkpt lat="48.57573" lon="-3.22051">
        <ele>146.6</ele>
        <time>2024-10-28T14:00:47.000Z</time>
      </trkpt>
      <trkpt lat="48.57623" lon="-3.22141">
        <ele>149.6</ele>
        <time>2024-10-28T14:01:03.000Z</time>
      </trkpt>
      <trkpt lat="48.57661" lon="-3.2221">
        <ele>152.2</ele>
        <time>2024-10-28T14:01:19.000Z</time>
      </trkpt>
      <trkpt lat="48.57694" lon="-3.2227">
        <ele>154</ele>
        <time>2024-10-28T14:01:36.000Z</time>
      </trkpt>
      <trkpt lat="48.57729" lon="-3.22341">
        <ele>155.6</ele>
        <time>2024-10-28T14:01:52.000Z</time>
      </trkpt>
      <trkpt lat="48.5777" lon="-3.22437">
        <ele>156.8</ele>
        <time>2024-10-28T14:02:08.000Z</time>
      </trkpt>
      <trkpt lat="48.57812" lon="-3.22537">
        <ele>157.4</ele>
        <time>2024-10-28T14:02:24.000Z</time>
      </trkpt>
      <trkpt lat="48.57857" lon="-3.22643">
        <ele>158.2</ele>
        <time>2024-10-28T14:02:40.000Z</time>
      </trkpt>
      <trkpt lat="48.57901" lon="-3.22748">
        <ele>159.2</ele>
        <time>2024-10-28T14:02:56.000Z</time>
      </trkpt>
      <trkpt lat="48.57946" lon="-3.22857">
        <ele>160.2</ele>
        <time>2024-10-28T14:03:12.000Z</time>
      </trkpt>
      <trkpt lat="48.57987" lon="-3.2297">
        <ele>160.2</ele>
        <time>2024-10-28T14:03:28.000Z</time>
      </trkpt>
      <trkpt lat="48.58024" lon="-3.23066">
        <ele>160.8</ele>
        <time>2024-10-28T14:03:41.000Z</time>
      </trkpt>
      <trkpt lat="48.58075" lon="-3.23147">
        <ele>162.8</ele>
        <time>2024-10-28T14:03:58.000Z</time>
      </trkpt>
      <trkpt lat="48.58094" lon="-3.23153">
        <ele>162.8</ele>
        <time>2024-10-28T14:04:04.000Z</time>
      </trkpt>
      <trkpt lat="48.58216" lon="-3.23114">
        <ele>158.2</ele>
        <time>2024-10-28T14:04:20.000Z</time>
      </trkpt>
      <trkpt lat="48.58337" lon="-3.23102">
        <ele>155.4</ele>
        <time>2024-10-28T14:04:33.000Z</time>
      </trkpt>
      <trkpt lat="48.5844" lon="-3.23093">
        <ele>155.2</ele>
        <time>2024-10-28T14:04:48.000Z</time>
      </trkpt>
      <trkpt lat="48.58522" lon="-3.23102">
        <ele>155</ele>
        <time>2024-10-28T14:05:01.000Z</time>
      </trkpt>
      <trkpt lat="48.58624" lon="-3.23125">
        <ele>154.6</ele>
        <time>2024-10-28T14:05:17.000Z</time>
      </trkpt>
      <trkpt lat="48.58658" lon="-3.23151">
        <ele>154.6</ele>
        <time>2024-10-28T14:05:23.000Z</time>
      </trkpt>
      <trkpt lat="48.58728" lon="-3.23264">
        <ele>154.8</ele>
        <time>2024-10-28T14:05:39.000Z</time>
      </trkpt>
      <trkpt lat="48.58792" lon="-3.23386">
        <ele>155</ele>
        <time>2024-10-28T14:05:55.000Z</time>
      </trkpt>
      <trkpt lat="48.58833" lon="-3.23437">
        <ele>154.8</ele>
        <time>2024-10-28T14:06:03.000Z</time>
      </trkpt>
      <trkpt lat="48.58919" lon="-3.23469">
        <ele>155.6</ele>
        <time>2024-10-28T14:06:17.000Z</time>
      </trkpt>
      <trkpt lat="48.59001" lon="-3.23519">
        <ele>156.4</ele>
        <time>2024-10-28T14:06:31.000Z</time>
      </trkpt>
      <trkpt lat="48.59069" lon="-3.2355">
        <ele>156.4</ele>
        <time>2024-10-28T14:06:42.000Z</time>
      </trkpt>
      <trkpt lat="48.59126" lon="-3.23592">
        <ele>156.4</ele>
        <time>2024-10-28T14:06:51.000Z</time>
      </trkpt>
      <trkpt lat="48.5924" lon="-3.23646">
        <ele>153.8</ele>
        <time>2024-10-28T14:07:07.000Z</time>
      </trkpt>
      <trkpt lat="48.59331" lon="-3.23678">
        <ele>153.4</ele>
        <time>2024-10-28T14:07:20.000Z</time>
      </trkpt>
      <trkpt lat="48.59423" lon="-3.23699">
        <ele>153</ele>
        <time>2024-10-28T14:07:34.000Z</time>
      </trkpt>
      <trkpt lat="48.59485" lon="-3.23738">
        <ele>152.6</ele>
        <time>2024-10-28T14:07:45.000Z</time>
      </trkpt>
      <trkpt lat="48.59552" lon="-3.23824">
        <ele>151.8</ele>
        <time>2024-10-28T14:07:58.000Z</time>
      </trkpt>
      <trkpt lat="48.59634" lon="-3.23909">
        <ele>152</ele>
        <time>2024-10-28T14:08:13.000Z</time>
      </trkpt>
      <trkpt lat="48.5972" lon="-3.24001">
        <ele>151.6</ele>
        <time>2024-10-28T14:08:29.000Z</time>
      </trkpt>
      <trkpt lat="48.59804" lon="-3.24107">
        <ele>150.4</ele>
        <time>2024-10-28T14:08:46.000Z</time>
      </trkpt>
      <trkpt lat="48.59889" lon="-3.24184">
        <ele>149.8</ele>
        <time>2024-10-28T14:09:01.000Z</time>
      </trkpt>
      <trkpt lat="48.59964" lon="-3.24203">
        <ele>149.6</ele>
        <time>2024-10-28T14:09:12.000Z</time>
      </trkpt>
      <trkpt lat="48.60059" lon="-3.24205">
        <ele>147.4</ele>
        <time>2024-10-28T14:09:28.000Z</time>
      </trkpt>
      <trkpt lat="48.60114" lon="-3.24216">
        <ele>145.8</ele>
        <time>2024-10-28T14:09:35.000Z</time>
      </trkpt>
      <trkpt lat="48.60174" lon="-3.24252">
        <ele>143</ele>
        <time>2024-10-28T14:09:44.000Z</time>
      </trkpt>
      <trkpt lat="48.60188" lon="-3.24241">
        <ele>142.4</ele>
        <time>2024-10-28T14:09:47.000Z</time>
      </trkpt>
      <trkpt lat="48.60209" lon="-3.24171">
        <ele>142.2</ele>
        <time>2024-10-28T14:09:58.000Z</time>
      </trkpt>
      <trkpt lat="48.60231" lon="-3.24164">
        <ele>141.4</ele>
        <time>2024-10-28T14:10:03.000Z</time>
      </trkpt>
      <trkpt lat="48.60317" lon="-3.2421">
        <ele>139.4</ele>
        <time>2024-10-28T14:10:15.000Z</time>
      </trkpt>
      <trkpt lat="48.60398" lon="-3.24225">
        <ele>135.4</ele>
        <time>2024-10-28T14:10:28.000Z</time>
      </trkpt>
      <trkpt lat="48.60409" lon="-3.24232">
        <ele>134.4</ele>
        <time>2024-10-28T14:10:33.000Z</time>
      </trkpt>
      <trkpt lat="48.60394" lon="-3.24281">
        <ele>135</ele>
        <time>2024-10-28T14:10:44.000Z</time>
      </trkpt>
      <trkpt lat="48.60373" lon="-3.24366">
        <ele>134.6</ele>
        <time>2024-10-28T14:10:55.000Z</time>
      </trkpt>
      <trkpt lat="48.60342" lon="-3.24408">
        <ele>133.6</ele>
        <time>2024-10-28T14:11:01.000Z</time>
      </trkpt>
      <trkpt lat="48.60244" lon="-3.24474">
        <ele>136.4</ele>
        <time>2024-10-28T14:11:17.000Z</time>
      </trkpt>
      <trkpt lat="48.60197" lon="-3.24521">
        <ele>137</ele>
        <time>2024-10-28T14:11:28.000Z</time>
      </trkpt>
      <trkpt lat="48.60177" lon="-3.24593">
        <ele>137</ele>
        <time>2024-10-28T14:11:38.000Z</time>
      </trkpt>
      <trkpt lat="48.60183" lon="-3.24705">
        <ele>134.2</ele>
        <time>2024-10-28T14:11:50.000Z</time>
      </trkpt>
      <trkpt lat="48.6018" lon="-3.24762">
        <ele>131.8</ele>
        <time>2024-10-28T14:11:56.000Z</time>
      </trkpt>
      <trkpt lat="48.60143" lon="-3.24883">
        <ele>126.8</ele>
        <time>2024-10-28T14:12:07.000Z</time>
      </trkpt>
      <trkpt lat="48.6012" lon="-3.24952">
        <ele>124</ele>
        <time>2024-10-28T14:12:13.000Z</time>
      </trkpt>
      <trkpt lat="48.60123" lon="-3.25051">
        <ele>121.4</ele>
        <time>2024-10-28T14:12:21.000Z</time>
      </trkpt>
      <trkpt lat="48.60125" lon="-3.25119">
        <ele>119.2</ele>
        <time>2024-10-28T14:12:27.000Z</time>
      </trkpt>
      <trkpt lat="48.60106" lon="-3.25154">
        <ele>117.8</ele>
        <time>2024-10-28T14:12:31.000Z</time>
      </trkpt>
      <trkpt lat="48.6008" lon="-3.25173">
        <ele>116.8</ele>
        <time>2024-10-28T14:12:34.000Z</time>
      </trkpt>
      <trkpt lat="48.60029" lon="-3.25214">
        <ele>115.4</ele>
        <time>2024-10-28T14:12:40.000Z</time>
      </trkpt>
      <trkpt lat="48.6001" lon="-3.2526">
        <ele>115</ele>
        <time>2024-10-28T14:12:44.000Z</time>
      </trkpt>
      <trkpt lat="48.5999" lon="-3.25422">
        <ele>119.4</ele>
        <time>2024-10-28T14:13:00.000Z</time>
      </trkpt>
      <trkpt lat="48.59968" lon="-3.25513">
        <ele>122.6</ele>
        <time>2024-10-28T14:13:16.000Z</time>
      </trkpt>
      <trkpt lat="48.59928" lon="-3.2558">
        <ele>123.8</ele>
        <time>2024-10-28T14:13:32.000Z</time>
      </trkpt>
      <trkpt lat="48.59871" lon="-3.25635">
        <ele>124.2</ele>
        <time>2024-10-28T14:13:48.000Z</time>
      </trkpt>
      <trkpt lat="48.59804" lon="-3.25693">
        <ele>124.6</ele>
        <time>2024-10-28T14:14:04.000Z</time>
      </trkpt>
      <trkpt lat="48.59742" lon="-3.25752">
        <ele>125.2</ele>
        <time>2024-10-28T14:14:20.000Z</time>
      </trkpt>
      <trkpt lat="48.59681" lon="-3.25809">
        <ele>126.4</ele>
        <time>2024-10-28T14:14:36.000Z</time>
      </trkpt>
      <trkpt lat="48.59622" lon="-3.25858">
        <ele>128.4</ele>
        <time>2024-10-28T14:14:52.000Z</time>
      </trkpt>
      <trkpt lat="48.59577" lon="-3.25869">
        <ele>129.4</ele>
        <time>2024-10-28T14:15:06.000Z</time>
      </trkpt>
      <trkpt lat="48.59539" lon="-3.25855">
        <ele>131.2</ele>
        <time>2024-10-28T14:15:18.000Z</time>
      </trkpt>
      <trkpt lat="48.59501" lon="-3.25862">
        <ele>132.4</ele>
        <time>2024-10-28T14:15:29.000Z</time>
      </trkpt>
      <trkpt lat="48.59452" lon="-3.25921">
        <ele>133.2</ele>
        <time>2024-10-28T14:15:44.000Z</time>
      </trkpt>
      <trkpt lat="48.59413" lon="-3.25933">
        <ele>133.4</ele>
        <time>2024-10-28T14:15:54.000Z</time>
      </trkpt>
      <trkpt lat="48.59342" lon="-3.25923">
        <ele>134.4</ele>
        <time>2024-10-28T14:16:10.000Z</time>
      </trkpt>
      <trkpt lat="48.59276" lon="-3.25946">
        <ele>135.8</ele>
        <time>2024-10-28T14:16:24.000Z</time>
      </trkpt>
      <trkpt lat="48.59208" lon="-3.25991">
        <ele>136.6</ele>
        <time>2024-10-28T14:16:40.000Z</time>
      </trkpt>
      <trkpt lat="48.59145" lon="-3.2604">
        <ele>137.8</ele>
        <time>2024-10-28T14:16:56.000Z</time>
      </trkpt>
      <trkpt lat="48.59126" lon="-3.26074">
        <ele>138.4</ele>
        <time>2024-10-28T14:17:07.000Z</time>
      </trkpt>
      <trkpt lat="48.59161" lon="-3.26132">
        <ele>139.8</ele>
        <time>2024-10-28T14:17:23.000Z</time>
      </trkpt>
      <trkpt lat="48.59185" lon="-3.2619">
        <ele>141</ele>
        <time>2024-10-28T14:17:37.000Z</time>
      </trkpt>
      <trkpt lat="48.59225" lon="-3.26245">
        <ele>141.6</ele>
        <time>2024-10-28T14:17:53.000Z</time>
      </trkpt>
      <trkpt lat="48.59267" lon="-3.26306">
        <ele>141</ele>
        <time>2024-10-28T14:18:10.000Z</time>
      </trkpt>
      <trkpt lat="48.59309" lon="-3.26368">
        <ele>140.4</ele>
        <time>2024-10-28T14:18:24.000Z</time>
      </trkpt>
      <trkpt lat="48.59376" lon="-3.26442">
        <ele>138.6</ele>
        <time>2024-10-28T14:18:37.000Z</time>
      </trkpt>
      <trkpt lat="48.59476" lon="-3.26539">
        <ele>133.6</ele>
        <time>2024-10-28T14:18:53.000Z</time>
      </trkpt>
      <trkpt lat="48.59572" lon="-3.26631">
        <ele>127.4</ele>
        <time>2024-10-28T14:19:09.000Z</time>
      </trkpt>
      <trkpt lat="48.59664" lon="-3.26737">
        <ele>126</ele>
        <time>2024-10-28T14:19:25.000Z</time>
      </trkpt>
      <trkpt lat="48.59702" lon="-3.26828">
        <ele>130</ele>
        <time>2024-10-28T14:19:38.000Z</time>
      </trkpt>
      <trkpt lat="48.59735" lon="-3.26927">
        <ele>132.8</ele>
        <time>2024-10-28T14:19:54.000Z</time>
      </trkpt>
      <trkpt lat="48.59738" lon="-3.26973">
        <ele>133.4</ele>
        <time>2024-10-28T14:20:03.000Z</time>
      </trkpt>
      <trkpt lat="48.59739" lon="-3.27062">
        <ele>134.2</ele>
        <time>2024-10-28T14:20:18.000Z</time>
      </trkpt>
      <trkpt lat="48.59736" lon="-3.27149">
        <ele>135.4</ele>
        <time>2024-10-28T14:20:33.000Z</time>
      </trkpt>
      <trkpt lat="48.59734" lon="-3.2726">
        <ele>138.2</ele>
        <time>2024-10-28T14:20:50.000Z</time>
      </trkpt>
      <trkpt lat="48.5974" lon="-3.2733">
        <ele>140.8</ele>
        <time>2024-10-28T14:21:02.000Z</time>
      </trkpt>
      <trkpt lat="48.59758" lon="-3.27422">
        <ele>143</ele>
        <time>2024-10-28T14:21:18.000Z</time>
      </trkpt>
      <trkpt lat="48.59765" lon="-3.2748">
        <ele>144.2</ele>
        <time>2024-10-28T14:21:28.000Z</time>
      </trkpt>
      <trkpt lat="48.59776" lon="-3.27543">
        <ele>146.2</ele>
        <time>2024-10-28T14:21:39.000Z</time>
      </trkpt>
      <trkpt lat="48.59794" lon="-3.27637">
        <ele>147.8</ele>
        <time>2024-10-28T14:21:55.000Z</time>
      </trkpt>
      <trkpt lat="48.59816" lon="-3.27723">
        <ele>149.2</ele>
        <time>2024-10-28T14:22:11.000Z</time>
      </trkpt>
      <trkpt lat="48.59842" lon="-3.27802">
        <ele>150.2</ele>
        <time>2024-10-28T14:22:27.000Z</time>
      </trkpt>
      <trkpt lat="48.59862" lon="-3.27884">
        <ele>151.8</ele>
        <time>2024-10-28T14:22:43.000Z</time>
      </trkpt>
      <trkpt lat="48.59876" lon="-3.27981">
        <ele>152.8</ele>
        <time>2024-10-28T14:23:00.000Z</time>
      </trkpt>
      <trkpt lat="48.59888" lon="-3.28078">
        <ele>154.4</ele>
        <time>2024-10-28T14:23:16.000Z</time>
      </trkpt>
      <trkpt lat="48.59897" lon="-3.28181">
        <ele>155</ele>
        <time>2024-10-28T14:23:32.000Z</time>
      </trkpt>
      <trkpt lat="48.59903" lon="-3.28278">
        <ele>156.6</ele>
        <time>2024-10-28T14:23:48.000Z</time>
      </trkpt>
      <trkpt lat="48.59895" lon="-3.28359">
        <ele>159</ele>
        <time>2024-10-28T14:24:03.000Z</time>
      </trkpt>
      <trkpt lat="48.59876" lon="-3.2843">
        <ele>160.2</ele>
        <time>2024-10-28T14:24:19.000Z</time>
      </trkpt>
      <trkpt lat="48.59872" lon="-3.285">
        <ele>161.8</ele>
        <time>2024-10-28T14:24:34.000Z</time>
      </trkpt>
      <trkpt lat="48.59864" lon="-3.28562">
        <ele>161.8</ele>
        <time>2024-10-28T14:24:45.000Z</time>
      </trkpt>
      <trkpt lat="48.59823" lon="-3.28648">
        <ele>161.8</ele>
        <time>2024-10-28T14:24:59.000Z</time>
      </trkpt>
      <trkpt lat="48.59812" lon="-3.28718">
        <ele>161.2</ele>
        <time>2024-10-28T14:25:08.000Z</time>
      </trkpt>
      <trkpt lat="48.59809" lon="-3.2879">
        <ele>162</ele>
        <time>2024-10-28T14:25:19.000Z</time>
      </trkpt>
      <trkpt lat="48.59772" lon="-3.28859">
        <ele>163</ele>
        <time>2024-10-28T14:25:32.000Z</time>
      </trkpt>
      <trkpt lat="48.59742" lon="-3.28936">
        <ele>163.4</ele>
        <time>2024-10-28T14:25:44.000Z</time>
      </trkpt>
      <trkpt lat="48.59723" lon="-3.29025">
        <ele>164.4</ele>
        <time>2024-10-28T14:25:56.000Z</time>
      </trkpt>
      <trkpt lat="48.59683" lon="-3.29065">
        <ele>165.8</ele>
        <time>2024-10-28T14:26:08.000Z</time>
      </trkpt>
      <trkpt lat="48.59639" lon="-3.29102">
        <ele>168.8</ele>
        <time>2024-10-28T14:26:24.000Z</time>
      </trkpt>
      <trkpt lat="48.596" lon="-3.29165">
        <ele>168.8</ele>
        <time>2024-10-28T14:26:40.000Z</time>
      </trkpt>
      <trkpt lat="48.59573" lon="-3.29251">
        <ele>170</ele>
        <time>2024-10-28T14:26:55.000Z</time>
      </trkpt>
      <trkpt lat="48.59543" lon="-3.29344">
        <ele>169.8</ele>
        <time>2024-10-28T14:27:11.000Z</time>
      </trkpt>
      <trkpt lat="48.59514" lon="-3.29458">
        <ele>169.8</ele>
        <time>2024-10-28T14:27:27.000Z</time>
      </trkpt>
      <trkpt lat="48.59492" lon="-3.2958">
        <ele>170.4</ele>
        <time>2024-10-28T14:27:44.000Z</time>
      </trkpt>
      <trkpt lat="48.59471" lon="-3.29689">
        <ele>172.2</ele>
        <time>2024-10-28T14:28:00.000Z</time>
      </trkpt>
      <trkpt lat="48.59451" lon="-3.29798">
        <ele>172.8</ele>
        <time>2024-10-28T14:28:16.000Z</time>
      </trkpt>
      <trkpt lat="48.59427" lon="-3.29914">
        <ele>172</ele>
        <time>2024-10-28T14:28:32.000Z</time>
      </trkpt>
      <trkpt lat="48.59399" lon="-3.29962">
        <ele>173</ele>
        <time>2024-10-28T14:28:42.000Z</time>
      </trkpt>
      <trkpt lat="48.59366" lon="-3.30014">
        <ele>173.4</ele>
        <time>2024-10-28T14:28:53.000Z</time>
      </trkpt>
      <trkpt lat="48.59358" lon="-3.30082">
        <ele>172</ele>
        <time>2024-10-28T14:29:01.000Z</time>
      </trkpt>
      <trkpt lat="48.59348" lon="-3.30202">
        <ele>169.6</ele>
        <time>2024-10-28T14:29:14.000Z</time>
      </trkpt>
      <trkpt lat="48.5931" lon="-3.30342">
        <ele>167</ele>
        <time>2024-10-28T14:29:30.000Z</time>
      </trkpt>
      <trkpt lat="48.59274" lon="-3.3046">
        <ele>167.2</ele>
        <time>2024-10-28T14:29:46.000Z</time>
      </trkpt>
      <trkpt lat="48.59231" lon="-3.30568">
        <ele>167.8</ele>
        <time>2024-10-28T14:30:02.000Z</time>
      </trkpt>
      <trkpt lat="48.59188" lon="-3.3066">
        <ele>170.2</ele>
        <time>2024-10-28T14:30:19.000Z</time>
      </trkpt>
      <trkpt lat="48.59141" lon="-3.30742">
        <ele>170.8</ele>
        <time>2024-10-28T14:30:35.000Z</time>
      </trkpt>
      <trkpt lat="48.59092" lon="-3.30819">
        <ele>172</ele>
        <time>2024-10-28T14:30:51.000Z</time>
      </trkpt>
      <trkpt lat="48.59043" lon="-3.30892">
        <ele>172</ele>
        <time>2024-10-28T14:31:07.000Z</time>
      </trkpt>
      <trkpt lat="48.58992" lon="-3.30957">
        <ele>174</ele>
        <time>2024-10-28T14:31:23.000Z</time>
      </trkpt>
      <trkpt lat="48.58943" lon="-3.31015">
        <ele>175.4</ele>
        <time>2024-10-28T14:31:39.000Z</time>
      </trkpt>
      <trkpt lat="48.58898" lon="-3.31083">
        <ele>178</ele>
        <time>2024-10-28T14:31:55.000Z</time>
      </trkpt>
      <trkpt lat="48.58862" lon="-3.31134">
        <ele>179.8</ele>
        <time>2024-10-28T14:32:11.000Z</time>
      </trkpt>
      <trkpt lat="48.58809" lon="-3.31173">
        <ele>180</ele>
        <time>2024-10-28T14:32:28.000Z</time>
      </trkpt>
      <trkpt lat="48.58748" lon="-3.31192">
        <ele>179.4</ele>
        <time>2024-10-28T14:32:44.000Z</time>
      </trkpt>
      <trkpt lat="48.58712" lon="-3.31214">
        <ele>178.8</ele>
        <time>2024-10-28T14:32:52.000Z</time>
      </trkpt>
      <trkpt lat="48.58665" lon="-3.31281">
        <ele>181</ele>
        <time>2024-10-28T14:33:06.000Z</time>
      </trkpt>
      <trkpt lat="48.58615" lon="-3.31292">
        <ele>183.4</ele>
        <time>2024-10-28T14:33:18.000Z</time>
      </trkpt>
      <trkpt lat="48.58561" lon="-3.313">
        <ele>185.8</ele>
        <time>2024-10-28T14:33:34.000Z</time>
      </trkpt>
      <trkpt lat="48.58509" lon="-3.3131">
        <ele>187.4</ele>
        <time>2024-10-28T14:33:50.000Z</time>
      </trkpt>
      <trkpt lat="48.58459" lon="-3.31325">
        <ele>188.6</ele>
        <time>2024-10-28T14:34:06.000Z</time>
      </trkpt>
      <trkpt lat="48.58415" lon="-3.31316">
        <ele>190.8</ele>
        <time>2024-10-28T14:34:22.000Z</time>
      </trkpt>
      <trkpt lat="48.58377" lon="-3.31282">
        <ele>192.6</ele>
        <time>2024-10-28T14:34:38.000Z</time>
      </trkpt>
      <trkpt lat="48.58352" lon="-3.31287">
        <ele>194.4</ele>
        <time>2024-10-28T14:34:47.000Z</time>
      </trkpt>
      <trkpt lat="48.5831" lon="-3.31334">
        <ele>196.6</ele>
        <time>2024-10-28T14:35:04.000Z</time>
      </trkpt>
      <trkpt lat="48.58265" lon="-3.31366">
        <ele>199</ele>
        <time>2024-10-28T14:35:19.000Z</time>
      </trkpt>
      <trkpt lat="48.58223" lon="-3.31379">
        <ele>201.8</ele>
        <time>2024-10-28T14:35:32.000Z</time>
      </trkpt>
      <trkpt lat="48.58203" lon="-3.31395">
        <ele>203.8</ele>
        <time>2024-10-28T14:35:40.000Z</time>
      </trkpt>
      <trkpt lat="48.58196" lon="-3.31402">
        <ele>204.4</ele>
        <time>2024-10-28T14:35:43.000Z</time>
      </trkpt>
      <trkpt lat="48.5819" lon="-3.31408">
        <ele>205.2</ele>
        <time>2024-10-28T14:35:46.000Z</time>
      </trkpt>
      <trkpt lat="48.58186" lon="-3.31412">
        <ele>205.8</ele>
        <time>2024-10-28T14:35:48.000Z</time>
      </trkpt>
      <trkpt lat="48.58169" lon="-3.3143">
        <ele>207.4</ele>
        <time>2024-10-28T14:35:57.000Z</time>
      </trkpt>
      <trkpt lat="48.58141" lon="-3.3146">
        <ele>210.2</ele>
        <time>2024-10-28T14:36:13.000Z</time>
      </trkpt>
      <trkpt lat="48.58125" lon="-3.31479">
        <ele>212</ele>
        <time>2024-10-28T14:36:24.000Z</time>
      </trkpt>
      <trkpt lat="48.58096" lon="-3.31503">
        <ele>214</ele>
        <time>2024-10-28T14:36:40.000Z</time>
      </trkpt>
      <trkpt lat="48.58065" lon="-3.31524">
        <ele>216</ele>
        <time>2024-10-28T14:36:56.000Z</time>
      </trkpt>
      <trkpt lat="48.58027" lon="-3.31551">
        <ele>217.2</ele>
        <time>2024-10-28T14:37:13.000Z</time>
      </trkpt>
      <trkpt lat="48.57975" lon="-3.31593">
        <ele>219.4</ele>
        <time>2024-10-28T14:37:29.000Z</time>
      </trkpt>
      <trkpt lat="48.57936" lon="-3.31623">
        <ele>222.4</ele>
        <time>2024-10-28T14:37:45.000Z</time>
      </trkpt>
      <trkpt lat="48.57898" lon="-3.31647">
        <ele>225.4</ele>
        <time>2024-10-28T14:38:01.000Z</time>
      </trkpt>
      <trkpt lat="48.57865" lon="-3.31662">
        <ele>228.2</ele>
        <time>2024-10-28T14:38:17.000Z</time>
      </trkpt>
      <trkpt lat="48.57834" lon="-3.31674">
        <ele>230.2</ele>
        <time>2024-10-28T14:38:33.000Z</time>
      </trkpt>
      <trkpt lat="48.57804" lon="-3.31687">
        <ele>232.2</ele>
        <time>2024-10-28T14:38:49.000Z</time>
      </trkpt>
      <trkpt lat="48.5776" lon="-3.31707">
        <ele>234.4</ele>
        <time>2024-10-28T14:39:05.000Z</time>
      </trkpt>
      <trkpt lat="48.57738" lon="-3.31711">
        <ele>235.2</ele>
        <time>2024-10-28T14:39:13.000Z</time>
      </trkpt>
      <trkpt lat="48.57732" lon="-3.31665">
        <ele>237.4</ele>
        <time>2024-10-28T14:39:24.000Z</time>
      </trkpt>
      <trkpt lat="48.57728" lon="-3.31623">
        <ele>240</ele>
        <time>2024-10-28T14:39:34.000Z</time>
      </trkpt>
      <trkpt lat="48.57728" lon="-3.31615">
        <ele>240.6</ele>
        <time>2024-10-28T14:39:37.000Z</time>
      </trkpt>
      <trkpt lat="48.57727" lon="-3.31607">
        <ele>241.2</ele>
        <time>2024-10-28T14:39:39.000Z</time>
      </trkpt>
      <trkpt lat="48.57726" lon="-3.31599">
        <ele>241.8</ele>
        <time>2024-10-28T14:39:41.000Z</time>
      </trkpt>
      <trkpt lat="48.57726" lon="-3.31585">
        <ele>243</ele>
        <time>2024-10-28T14:39:45.000Z</time>
      </trkpt>
      <trkpt lat="48.57725" lon="-3.31578">
        <ele>243.6</ele>
        <time>2024-10-28T14:39:47.000Z</time>
      </trkpt>
      <trkpt lat="48.57725" lon="-3.31571">
        <ele>244.2</ele>
        <time>2024-10-28T14:39:49.000Z</time>
      </trkpt>
      <trkpt lat="48.57725" lon="-3.31564">
        <ele>244.8</ele>
        <time>2024-10-28T14:39:51.000Z</time>
      </trkpt>
      <trkpt lat="48.57726" lon="-3.31549">
        <ele>246.2</ele>
        <time>2024-10-28T14:39:56.000Z</time>
      </trkpt>
      <trkpt lat="48.57728" lon="-3.31524">
        <ele>248.4</ele>
        <time>2024-10-28T14:40:04.000Z</time>
      </trkpt>
      <trkpt lat="48.57733" lon="-3.31477">
        <ele>251.4</ele>
        <time>2024-10-28T14:40:20.000Z</time>
      </trkpt>
      <trkpt lat="48.57737" lon="-3.31433">
        <ele>254.4</ele>
        <time>2024-10-28T14:40:36.000Z</time>
      </trkpt>
      <trkpt lat="48.57736" lon="-3.31391">
        <ele>257.2</ele>
        <time>2024-10-28T14:40:52.000Z</time>
      </trkpt>
      <trkpt lat="48.57736" lon="-3.31353">
        <ele>260</ele>
        <time>2024-10-28T14:41:08.000Z</time>
      </trkpt>
      <trkpt lat="48.57744" lon="-3.31311">
        <ele>262.4</ele>
        <time>2024-10-28T14:41:24.000Z</time>
      </trkpt>
      <trkpt lat="48.57751" lon="-3.31268">
        <ele>265</ele>
        <time>2024-10-28T14:41:40.000Z</time>
      </trkpt>
      <trkpt lat="48.57756" lon="-3.31221">
        <ele>267.8</ele>
        <time>2024-10-28T14:41:56.000Z</time>
      </trkpt>
      <trkpt lat="48.57751" lon="-3.31173">
        <ele>271</ele>
        <time>2024-10-28T14:42:13.000Z</time>
      </trkpt>
      <trkpt lat="48.57745" lon="-3.31131">
        <ele>274.4</ele>
        <time>2024-10-28T14:42:29.000Z</time>
      </trkpt>
      <trkpt lat="48.57741" lon="-3.31086">
        <ele>277.2</ele>
        <time>2024-10-28T14:42:45.000Z</time>
      </trkpt>
      <trkpt lat="48.57742" lon="-3.31043">
        <ele>280</ele>
        <time>2024-10-28T14:43:01.000Z</time>
      </trkpt>
      <trkpt lat="48.57742" lon="-3.31003">
        <ele>282.6</ele>
        <time>2024-10-28T14:43:17.000Z</time>
      </trkpt>
      <trkpt lat="48.5774" lon="-3.30965">
        <ele>285.2</ele>
        <time>2024-10-28T14:43:33.000Z</time>
      </trkpt>
      <trkpt lat="48.57736" lon="-3.30927">
        <ele>287.8</ele>
        <time>2024-10-28T14:43:49.000Z</time>
      </trkpt>
      <trkpt lat="48.57736" lon="-3.30891">
        <ele>290</ele>
        <time>2024-10-28T14:44:05.000Z</time>
      </trkpt>
      <trkpt lat="48.57735" lon="-3.30861">
        <ele>292.6</ele>
        <time>2024-10-28T14:44:18.000Z</time>
      </trkpt>
      <trkpt lat="48.57722" lon="-3.3085">
        <ele>294.6</ele>
        <time>2024-10-28T14:44:29.000Z</time>
      </trkpt>
      <trkpt lat="48.57704" lon="-3.30828">
        <ele>297.2</ele>
        <time>2024-10-28T14:44:45.000Z</time>
      </trkpt>
      <trkpt lat="48.5769" lon="-3.30803">
        <ele>300</ele>
        <time>2024-10-28T14:45:01.000Z</time>
      </trkpt>
      <trkpt lat="48.57675" lon="-3.30763">
        <ele>302.6</ele>
        <time>2024-10-28T14:45:17.000Z</time>
      </trkpt>
      <trkpt lat="48.57658" lon="-3.30753">
        <ele>304.2</ele>
        <time>2024-10-28T14:45:24.000Z</time>
      </trkpt>
      <trkpt lat="48.57664" lon="-3.30751">
        <ele>304.2</ele>
        <time>2024-10-28T14:46:37.000Z</time>
      </trkpt>
      <trkpt lat="48.57681" lon="-3.30774">
        <ele>303</ele>
        <time>2024-10-28T14:46:53.000Z</time>
      </trkpt>
      <trkpt lat="48.57706" lon="-3.3083">
        <ele>299.2</ele>
        <time>2024-10-28T14:47:06.000Z</time>
      </trkpt>
      <trkpt lat="48.57737" lon="-3.30866">
        <ele>294.2</ele>
        <time>2024-10-28T14:47:18.000Z</time>
      </trkpt>
      <trkpt lat="48.57737" lon="-3.30923">
        <ele>290.6</ele>
        <time>2024-10-28T14:47:31.000Z</time>
      </trkpt>
      <trkpt lat="48.57744" lon="-3.31028">
        <ele>284.2</ele>
        <time>2024-10-28T14:47:47.000Z</time>
      </trkpt>
      <trkpt lat="48.57748" lon="-3.31142">
        <ele>276.8</ele>
        <time>2024-10-28T14:48:03.000Z</time>
      </trkpt>
      <trkpt lat="48.57758" lon="-3.31226">
        <ele>271</ele>
        <time>2024-10-28T14:48:15.000Z</time>
      </trkpt>
      <trkpt lat="48.57739" lon="-3.31342">
        <ele>264.2</ele>
        <time>2024-10-28T14:48:29.000Z</time>
      </trkpt>
      <trkpt lat="48.57738" lon="-3.31433">
        <ele>258</ele>
        <time>2024-10-28T14:48:42.000Z</time>
      </trkpt>
      <trkpt lat="48.57726" lon="-3.31548">
        <ele>251.6</ele>
        <time>2024-10-28T14:48:55.000Z</time>
      </trkpt>
      <trkpt lat="48.5773" lon="-3.3165">
        <ele>242.4</ele>
        <time>2024-10-28T14:49:09.000Z</time>
      </trkpt>
      <trkpt lat="48.57734" lon="-3.31709">
        <ele>237.6</ele>
        <time>2024-10-28T14:49:22.000Z</time>
      </trkpt>
      <trkpt lat="48.57709" lon="-3.31729">
        <ele>237.2</ele>
        <time>2024-10-28T14:49:31.000Z</time>
      </trkpt>
      <trkpt lat="48.57666" lon="-3.31742">
        <ele>237.6</ele>
        <time>2024-10-28T14:49:47.000Z</time>
      </trkpt>
      <trkpt lat="48.576" lon="-3.31761">
        <ele>236.4</ele>
        <time>2024-10-28T14:50:03.000Z</time>
      </trkpt>
      <trkpt lat="48.57538" lon="-3.31774">
        <ele>235.2</ele>
        <time>2024-10-28T14:50:19.000Z</time>
      </trkpt>
      <trkpt lat="48.5749" lon="-3.31754">
        <ele>234.2</ele>
        <time>2024-10-28T14:50:32.000Z</time>
      </trkpt>
      <trkpt lat="48.57421" lon="-3.317">
        <ele>230.8</ele>
        <time>2024-10-28T14:50:48.000Z</time>
      </trkpt>
      <trkpt lat="48.57355" lon="-3.31658">
        <ele>229</ele>
        <time>2024-10-28T14:51:04.000Z</time>
      </trkpt>
      <trkpt lat="48.57279" lon="-3.31627">
        <ele>225.6</ele>
        <time>2024-10-28T14:51:20.000Z</time>
      </trkpt>
      <trkpt lat="48.57204" lon="-3.31596">
        <ele>224.2</ele>
        <time>2024-10-28T14:51:37.000Z</time>
      </trkpt>
      <trkpt lat="48.5715" lon="-3.31561">
        <ele>222.8</ele>
        <time>2024-10-28T14:51:53.000Z</time>
      </trkpt>
      <trkpt lat="48.57097" lon="-3.31527">
        <ele>220.6</ele>
        <time>2024-10-28T14:52:09.000Z</time>
      </trkpt>
      <trkpt lat="48.5704" lon="-3.31496">
        <ele>217.8</ele>
        <time>2024-10-28T14:52:25.000Z</time>
      </trkpt>
      <trkpt lat="48.56994" lon="-3.31482">
        <ele>214.8</ele>
        <time>2024-10-28T14:52:41.000Z</time>
      </trkpt>
      <trkpt lat="48.56937" lon="-3.31461">
        <ele>211.2</ele>
        <time>2024-10-28T14:52:55.000Z</time>
      </trkpt>
      <trkpt lat="48.56886" lon="-3.31412">
        <ele>206.6</ele>
        <time>2024-10-28T14:53:11.000Z</time>
      </trkpt>
      <trkpt lat="48.5683" lon="-3.31388">
        <ele>203.4</ele>
        <time>2024-10-28T14:53:24.000Z</time>
      </trkpt>
      <trkpt lat="48.56778" lon="-3.31395">
        <ele>199.8</ele>
        <time>2024-10-28T14:53:38.000Z</time>
      </trkpt>
      <trkpt lat="48.56751" lon="-3.31396">
        <ele>198</ele>
        <time>2024-10-28T14:53:52.000Z</time>
      </trkpt>
      <trkpt lat="48.5675" lon="-3.31344">
        <ele>196.6</ele>
        <time>2024-10-28T14:54:05.000Z</time>
      </trkpt>
      <trkpt lat="48.56738" lon="-3.31318">
        <ele>196</ele>
        <time>2024-10-28T14:54:09.000Z</time>
      </trkpt>
      <trkpt lat="48.56693" lon="-3.31275">
        <ele>194.8</ele>
        <time>2024-10-28T14:54:20.000Z</time>
      </trkpt>
      <trkpt lat="48.56696" lon="-3.31217">
        <ele>194.8</ele>
        <time>2024-10-28T14:54:29.000Z</time>
      </trkpt>
      <trkpt lat="48.56708" lon="-3.31113">
        <ele>196</ele>
        <time>2024-10-28T14:54:45.000Z</time>
      </trkpt>
      <trkpt lat="48.56711" lon="-3.30977">
        <ele>195.6</ele>
        <time>2024-10-28T14:55:01.000Z</time>
      </trkpt>
      <trkpt lat="48.56716" lon="-3.30825">
        <ele>194.8</ele>
        <time>2024-10-28T14:55:17.000Z</time>
      </trkpt>
      <trkpt lat="48.56719" lon="-3.30684">
        <ele>194.4</ele>
        <time>2024-10-28T14:55:33.000Z</time>
      </trkpt>
      <trkpt lat="48.56718" lon="-3.30549">
        <ele>194.6</ele>
        <time>2024-10-28T14:55:49.000Z</time>
      </trkpt>
      <trkpt lat="48.56708" lon="-3.30417">
        <ele>194.4</ele>
        <time>2024-10-28T14:56:05.000Z</time>
      </trkpt>
      <trkpt lat="48.56697" lon="-3.30276">
        <ele>194.2</ele>
        <time>2024-10-28T14:56:22.000Z</time>
      </trkpt>
      <trkpt lat="48.56697" lon="-3.30145">
        <ele>194</ele>
        <time>2024-10-28T14:56:37.000Z</time>
      </trkpt>
      <trkpt lat="48.567" lon="-3.30008">
        <ele>193.6</ele>
        <time>2024-10-28T14:56:53.000Z</time>
      </trkpt>
      <trkpt lat="48.56704" lon="-3.29835">
        <ele>190.8</ele>
        <time>2024-10-28T14:57:09.000Z</time>
      </trkpt>
      <trkpt lat="48.56713" lon="-3.29698">
        <ele>188.6</ele>
        <time>2024-10-28T14:57:21.000Z</time>
      </trkpt>
      <trkpt lat="48.56752" lon="-3.29585">
        <ele>185</ele>
        <time>2024-10-28T14:57:33.000Z</time>
      </trkpt>
      <trkpt lat="48.56773" lon="-3.29508">
        <ele>183.2</ele>
        <time>2024-10-28T14:57:42.000Z</time>
      </trkpt>
      <trkpt lat="48.56779" lon="-3.29356">
        <ele>180.8</ele>
        <time>2024-10-28T14:57:58.000Z</time>
      </trkpt>
      <trkpt lat="48.56782" lon="-3.29227">
        <ele>180.2</ele>
        <time>2024-10-28T14:58:14.000Z</time>
      </trkpt>
      <trkpt lat="48.56786" lon="-3.2911">
        <ele>180.8</ele>
        <time>2024-10-28T14:58:30.000Z</time>
      </trkpt>
      <trkpt lat="48.56792" lon="-3.2906">
        <ele>180.2</ele>
        <time>2024-10-28T14:58:38.000Z</time>
      </trkpt>
      <trkpt lat="48.56812" lon="-3.29062">
        <ele>180</ele>
        <time>2024-10-28T14:58:44.000Z</time>
      </trkpt>
      <trkpt lat="48.56875" lon="-3.29094">
        <ele>179.2</ele>
        <time>2024-10-28T14:58:57.000Z</time>
      </trkpt>
      <trkpt lat="48.56973" lon="-3.29122">
        <ele>176.6</ele>
        <time>2024-10-28T14:59:13.000Z</time>
      </trkpt>
      <trkpt lat="48.57019" lon="-3.29118">
        <ele>174.6</ele>
        <time>2024-10-28T14:59:19.000Z</time>
      </trkpt>
      <trkpt lat="48.57065" lon="-3.2908">
        <ele>174.4</ele>
        <time>2024-10-28T14:59:25.000Z</time>
      </trkpt>
      <trkpt lat="48.57127" lon="-3.28977">
        <ele>178.2</ele>
        <time>2024-10-28T14:59:41.000Z</time>
      </trkpt>
      <trkpt lat="48.5717" lon="-3.28906">
        <ele>180</ele>
        <time>2024-10-28T14:59:57.000Z</time>
      </trkpt>
      <trkpt lat="48.5721" lon="-3.28839">
        <ele>181.2</ele>
        <time>2024-10-28T15:00:13.000Z</time>
      </trkpt>
      <trkpt lat="48.57237" lon="-3.28762">
        <ele>182.2</ele>
        <time>2024-10-28T15:00:29.000Z</time>
      </trkpt>
      <trkpt lat="48.5725" lon="-3.2867">
        <ele>183.6</ele>
        <time>2024-10-28T15:00:45.000Z</time>
      </trkpt>
      <trkpt lat="48.57263" lon="-3.28564">
        <ele>184.2</ele>
        <time>2024-10-28T15:01:01.000Z</time>
      </trkpt>
      <trkpt lat="48.57281" lon="-3.28507">
        <ele>184.8</ele>
        <time>2024-10-28T15:01:11.000Z</time>
      </trkpt>
      <trkpt lat="48.57329" lon="-3.28467">
        <ele>186.4</ele>
        <time>2024-10-28T15:01:23.000Z</time>
      </trkpt>
      <trkpt lat="48.57384" lon="-3.28432">
        <ele>187</ele>
        <time>2024-10-28T15:01:39.000Z</time>
      </trkpt>
      <trkpt lat="48.57446" lon="-3.28397">
        <ele>186.6</ele>
        <time>2024-10-28T15:01:55.000Z</time>
      </trkpt>
      <trkpt lat="48.57518" lon="-3.28369">
        <ele>186.6</ele>
        <time>2024-10-28T15:02:11.000Z</time>
      </trkpt>
      <trkpt lat="48.57591" lon="-3.28355">
        <ele>186.8</ele>
        <time>2024-10-28T15:02:27.000Z</time>
      </trkpt>
      <trkpt lat="48.57671" lon="-3.2835">
        <ele>187</ele>
        <time>2024-10-28T15:02:43.000Z</time>
      </trkpt>
      <trkpt lat="48.57754" lon="-3.28337">
        <ele>187.2</ele>
        <time>2024-10-28T15:02:59.000Z</time>
      </trkpt>
      <trkpt lat="48.57828" lon="-3.28289">
        <ele>185.2</ele>
        <time>2024-10-28T15:03:13.000Z</time>
      </trkpt>
      <trkpt lat="48.57913" lon="-3.28212">
        <ele>181.4</ele>
        <time>2024-10-28T15:03:30.000Z</time>
      </trkpt>
      <trkpt lat="48.58009" lon="-3.28136">
        <ele>176.4</ele>
        <time>2024-10-28T15:03:45.000Z</time>
      </trkpt>
      <trkpt lat="48.58109" lon="-3.28075">
        <ele>171</ele>
        <time>2024-10-28T15:04:01.000Z</time>
      </trkpt>
      <trkpt lat="48.5821" lon="-3.28015">
        <ele>165</ele>
        <time>2024-10-28T15:04:17.000Z</time>
      </trkpt>
      <trkpt lat="48.58297" lon="-3.27962">
        <ele>160.8</ele>
        <time>2024-10-28T15:04:33.000Z</time>
      </trkpt>
      <trkpt lat="48.58384" lon="-3.27909">
        <ele>157.6</ele>
        <time>2024-10-28T15:04:49.000Z</time>
      </trkpt>
      <trkpt lat="48.5844" lon="-3.27875">
        <ele>156.6</ele>
        <time>2024-10-28T15:05:05.000Z</time>
      </trkpt>
      <trkpt lat="48.58497" lon="-3.27843">
        <ele>155.4</ele>
        <time>2024-10-28T15:05:21.000Z</time>
      </trkpt>
      <trkpt lat="48.58585" lon="-3.27791">
        <ele>153.4</ele>
        <time>2024-10-28T15:05:37.000Z</time>
      </trkpt>
      <trkpt lat="48.58659" lon="-3.27737">
        <ele>151.2</ele>
        <time>2024-10-28T15:05:53.000Z</time>
      </trkpt>
      <trkpt lat="48.58724" lon="-3.27728">
        <ele>148.4</ele>
        <time>2024-10-28T15:06:05.000Z</time>
      </trkpt>
      <trkpt lat="48.58758" lon="-3.27705">
        <ele>147</ele>
        <time>2024-10-28T15:06:11.000Z</time>
      </trkpt>
      <trkpt lat="48.58809" lon="-3.276">
        <ele>144.2</ele>
        <time>2024-10-28T15:06:22.000Z</time>
      </trkpt>
      <trkpt lat="48.58885" lon="-3.27458">
        <ele>141.8</ele>
        <time>2024-10-28T15:06:37.000Z</time>
      </trkpt>
      <trkpt lat="48.58949" lon="-3.27346">
        <ele>140.4</ele>
        <time>2024-10-28T15:06:53.000Z</time>
      </trkpt>
      <trkpt lat="48.58989" lon="-3.27251">
        <ele>139.8</ele>
        <time>2024-10-28T15:07:06.000Z</time>
      </trkpt>
      <trkpt lat="48.59024" lon="-3.27155">
        <ele>138.2</ele>
        <time>2024-10-28T15:07:20.000Z</time>
      </trkpt>
      <trkpt lat="48.59057" lon="-3.27124">
        <ele>137.2</ele>
        <time>2024-10-28T15:07:26.000Z</time>
      </trkpt>
      <trkpt lat="48.59134" lon="-3.27108">
        <ele>135.4</ele>
        <time>2024-10-28T15:07:40.000Z</time>
      </trkpt>
      <trkpt lat="48.59182" lon="-3.27086">
        <ele>132.6</ele>
        <time>2024-10-28T15:07:52.000Z</time>
      </trkpt>
      <trkpt lat="48.59221" lon="-3.27099">
        <ele>131</ele>
        <time>2024-10-28T15:07:58.000Z</time>
      </trkpt>
      <trkpt lat="48.5927" lon="-3.27159">
        <ele>130.2</ele>
        <time>2024-10-28T15:08:07.000Z</time>
      </trkpt>
      <trkpt lat="48.59332" lon="-3.27201">
        <ele>133.4</ele>
        <time>2024-10-28T15:08:20.000Z</time>
      </trkpt>
      <trkpt lat="48.59371" lon="-3.2723">
        <ele>138.2</ele>
        <time>2024-10-28T15:08:36.000Z</time>
      </trkpt>
      <trkpt lat="48.59402" lon="-3.27252">
        <ele>139.8</ele>
        <time>2024-10-28T15:08:49.000Z</time>
      </trkpt>
      <trkpt lat="48.59452" lon="-3.27244">
        <ele>140</ele>
        <time>2024-10-28T15:09:03.000Z</time>
      </trkpt>
      <trkpt lat="48.59506" lon="-3.27219">
        <ele>139.4</ele>
        <time>2024-10-28T15:09:19.000Z</time>
      </trkpt>
      <trkpt lat="48.59559" lon="-3.27187">
        <ele>140.2</ele>
        <time>2024-10-28T15:09:35.000Z</time>
      </trkpt>
      <trkpt lat="48.59609" lon="-3.27147">
        <ele>139.8</ele>
        <time>2024-10-28T15:09:51.000Z</time>
      </trkpt>
      <trkpt lat="48.59676" lon="-3.27101">
        <ele>137.6</ele>
        <time>2024-10-28T15:10:07.000Z</time>
      </trkpt>
      <trkpt lat="48.59723" lon="-3.2707">
        <ele>137</ele>
        <time>2024-10-28T15:10:23.000Z</time>
      </trkpt>
      <trkpt lat="48.59734" lon="-3.27051">
        <ele>136.6</ele>
        <time>2024-10-28T15:10:30.000Z</time>
      </trkpt>
      <trkpt lat="48.59734" lon="-3.26964">
        <ele>135.8</ele>
        <time>2024-10-28T15:10:47.000Z</time>
      </trkpt>
      <trkpt lat="48.59732" lon="-3.26927">
        <ele>135.4</ele>
        <time>2024-10-28T15:10:57.000Z</time>
      </trkpt>
      <trkpt lat="48.59696" lon="-3.26823">
        <ele>133.6</ele>
        <time>2024-10-28T15:11:12.000Z</time>
      </trkpt>
      <trkpt lat="48.59659" lon="-3.26737">
        <ele>131.2</ele>
        <time>2024-10-28T15:11:23.000Z</time>
      </trkpt>
      <trkpt lat="48.59581" lon="-3.26646">
        <ele>128</ele>
        <time>2024-10-28T15:11:39.000Z</time>
      </trkpt>
      <trkpt lat="48.59506" lon="-3.26574">
        <ele>131.2</ele>
        <time>2024-10-28T15:11:55.000Z</time>
      </trkpt>
      <trkpt lat="48.59447" lon="-3.26518">
        <ele>134.6</ele>
        <time>2024-10-28T15:12:11.000Z</time>
      </trkpt>
      <trkpt lat="48.59404" lon="-3.26477">
        <ele>137.4</ele>
        <time>2024-10-28T15:12:27.000Z</time>
      </trkpt>
      <trkpt lat="48.59361" lon="-3.26432">
        <ele>140</ele>
        <time>2024-10-28T15:12:43.000Z</time>
      </trkpt>
      <trkpt lat="48.59331" lon="-3.26414">
        <ele>141.6</ele>
        <time>2024-10-28T15:12:54.000Z</time>
      </trkpt>
      <trkpt lat="48.59313" lon="-3.2641">
        <ele>142</ele>
        <time>2024-10-28T15:13:02.000Z</time>
      </trkpt>
      <trkpt lat="48.59296" lon="-3.2636">
        <ele>142.6</ele>
        <time>2024-10-28T15:13:15.000Z</time>
      </trkpt>
      <trkpt lat="48.59261" lon="-3.26315">
        <ele>143.4</ele>
        <time>2024-10-28T15:13:31.000Z</time>
      </trkpt>
      <trkpt lat="48.59227" lon="-3.26266">
        <ele>143.8</ele>
        <time>2024-10-28T15:13:47.000Z</time>
      </trkpt>
      <trkpt lat="48.59195" lon="-3.26219">
        <ele>143.8</ele>
        <time>2024-10-28T15:14:03.000Z</time>
      </trkpt>
      <trkpt lat="48.59161" lon="-3.26176">
        <ele>143.4</ele>
        <time>2024-10-28T15:14:19.000Z</time>
      </trkpt>
      <trkpt lat="48.59133" lon="-3.26139">
        <ele>143</ele>
        <time>2024-10-28T15:14:32.000Z</time>
      </trkpt>
      <trkpt lat="48.59101" lon="-3.26116">
        <ele>142.2</ele>
        <time>2024-10-28T15:14:47.000Z</time>
      </trkpt>
      <trkpt lat="48.591" lon="-3.26086">
        <ele>141.6</ele>
        <time>2024-10-28T15:14:55.000Z</time>
      </trkpt>
      <trkpt lat="48.59149" lon="-3.26029">
        <ele>140.4</ele>
        <time>2024-10-28T15:15:07.000Z</time>
      </trkpt>
      <trkpt lat="48.59229" lon="-3.25969">
        <ele>139</ele>
        <time>2024-10-28T15:15:21.000Z</time>
      </trkpt>
      <trkpt lat="48.59314" lon="-3.25919">
        <ele>137.8</ele>
        <time>2024-10-28T15:15:35.000Z</time>
      </trkpt>
      <trkpt lat="48.59411" lon="-3.25924">
        <ele>136.2</ele>
        <time>2024-10-28T15:15:48.000Z</time>
      </trkpt>
      <trkpt lat="48.59455" lon="-3.25914">
        <ele>135.2</ele>
        <time>2024-10-28T15:15:54.000Z</time>
      </trkpt>
      <trkpt lat="48.59501" lon="-3.25856">
        <ele>134.6</ele>
        <time>2024-10-28T15:16:03.000Z</time>
      </trkpt>
      <trkpt lat="48.59521" lon="-3.25813">
        <ele>134.6</ele>
        <time>2024-10-28T15:16:09.000Z</time>
      </trkpt>
      <trkpt lat="48.59534" lon="-3.25818">
        <ele>134.8</ele>
        <time>2024-10-28T15:16:12.000Z</time>
      </trkpt>
      <trkpt lat="48.59561" lon="-3.25858">
        <ele>134</ele>
        <time>2024-10-28T15:16:18.000Z</time>
      </trkpt>
      <trkpt lat="48.59605" lon="-3.25863">
        <ele>132.8</ele>
        <time>2024-10-28T15:16:24.000Z</time>
      </trkpt>
      <trkpt lat="48.59675" lon="-3.25809">
        <ele>129.4</ele>
        <time>2024-10-28T15:16:36.000Z</time>
      </trkpt>
      <trkpt lat="48.59786" lon="-3.25707">
        <ele>127.2</ele>
        <time>2024-10-28T15:16:52.000Z</time>
      </trkpt>
      <trkpt lat="48.59886" lon="-3.25618">
        <ele>126.2</ele>
        <time>2024-10-28T15:17:08.000Z</time>
      </trkpt>
      <trkpt lat="48.59954" lon="-3.2554">
        <ele>125.6</ele>
        <time>2024-10-28T15:17:21.000Z</time>
      </trkpt>
      <trkpt lat="48.59982" lon="-3.25472">
        <ele>124.8</ele>
        <time>2024-10-28T15:17:29.000Z</time>
      </trkpt>
      <trkpt lat="48.6" lon="-3.25353">
        <ele>121.2</ele>
        <time>2024-10-28T15:17:41.000Z</time>
      </trkpt>
      <trkpt lat="48.60019" lon="-3.25234">
        <ele>117.2</ele>
        <time>2024-10-28T15:17:53.000Z</time>
      </trkpt>
      <trkpt lat="48.60042" lon="-3.25197">
        <ele>116.4</ele>
        <time>2024-10-28T15:17:58.000Z</time>
      </trkpt>
      <trkpt lat="48.60111" lon="-3.25144">
        <ele>117.6</ele>
        <time>2024-10-28T15:18:09.000Z</time>
      </trkpt>
      <trkpt lat="48.60127" lon="-3.25099">
        <ele>119.8</ele>
        <time>2024-10-28T15:18:15.000Z</time>
      </trkpt>
      <trkpt lat="48.60117" lon="-3.25">
        <ele>122.8</ele>
        <time>2024-10-28T15:18:27.000Z</time>
      </trkpt>
      <trkpt lat="48.60125" lon="-3.24921">
        <ele>124.8</ele>
        <time>2024-10-28T15:18:37.000Z</time>
      </trkpt>
      <trkpt lat="48.60154" lon="-3.24853">
        <ele>127</ele>
        <time>2024-10-28T15:18:51.000Z</time>
      </trkpt>
      <trkpt lat="48.60172" lon="-3.2478">
        <ele>130.2</ele>
        <time>2024-10-28T15:19:07.000Z</time>
      </trkpt>
      <trkpt lat="48.60181" lon="-3.24716">
        <ele>132.8</ele>
        <time>2024-10-28T15:19:21.000Z</time>
      </trkpt>
      <trkpt lat="48.60175" lon="-3.2464">
        <ele>136.4</ele>
        <time>2024-10-28T15:19:37.000Z</time>
      </trkpt>
      <trkpt lat="48.60177" lon="-3.24575">
        <ele>138.6</ele>
        <time>2024-10-28T15:19:51.000Z</time>
      </trkpt>
      <trkpt lat="48.60199" lon="-3.24512">
        <ele>139.4</ele>
        <time>2024-10-28T15:20:05.000Z</time>
      </trkpt>
      <trkpt lat="48.60246" lon="-3.24469">
        <ele>138.6</ele>
        <time>2024-10-28T15:20:19.000Z</time>
      </trkpt>
      <trkpt lat="48.6033" lon="-3.24411">
        <ele>136.2</ele>
        <time>2024-10-28T15:20:34.000Z</time>
      </trkpt>
      <trkpt lat="48.60371" lon="-3.2437">
        <ele>135</ele>
        <time>2024-10-28T15:20:40.000Z</time>
      </trkpt>
      <trkpt lat="48.6039" lon="-3.24295">
        <ele>136.8</ele>
        <time>2024-10-28T15:20:52.000Z</time>
      </trkpt>
      <trkpt lat="48.60406" lon="-3.24237">
        <ele>137.4</ele>
        <time>2024-10-28T15:21:02.000Z</time>
      </trkpt>
      <trkpt lat="48.60394" lon="-3.24229">
        <ele>137.6</ele>
        <time>2024-10-28T15:21:07.000Z</time>
      </trkpt>
      <trkpt lat="48.60336" lon="-3.24222">
        <ele>139.6</ele>
        <time>2024-10-28T15:21:20.000Z</time>
      </trkpt>
      <trkpt lat="48.60276" lon="-3.24194">
        <ele>141.4</ele>
        <time>2024-10-28T15:21:36.000Z</time>
      </trkpt>
      <trkpt lat="48.6023" lon="-3.24171">
        <ele>143.4</ele>
        <time>2024-10-28T15:21:51.000Z</time>
      </trkpt>
      <trkpt lat="48.6021" lon="-3.24183">
        <ele>144.6</ele>
        <time>2024-10-28T15:21:58.000Z</time>
      </trkpt>
      <trkpt lat="48.60188" lon="-3.24248">
        <ele>145</ele>
        <time>2024-10-28T15:22:10.000Z</time>
      </trkpt>
      <trkpt lat="48.60173" lon="-3.24259">
        <ele>145</ele>
        <time>2024-10-28T15:22:14.000Z</time>
      </trkpt>
      <trkpt lat="48.60131" lon="-3.24233">
        <ele>146.2</ele>
        <time>2024-10-28T15:22:25.000Z</time>
      </trkpt>
      <trkpt lat="48.60077" lon="-3.2421">
        <ele>148.2</ele>
        <time>2024-10-28T15:22:41.000Z</time>
      </trkpt>
      <trkpt lat="48.6002" lon="-3.2421">
        <ele>150.4</ele>
        <time>2024-10-28T15:22:57.000Z</time>
      </trkpt>
      <trkpt lat="48.59969" lon="-3.24207">
        <ele>152</ele>
        <time>2024-10-28T15:23:13.000Z</time>
      </trkpt>
      <trkpt lat="48.59906" lon="-3.24197">
        <ele>152.4</ele>
        <time>2024-10-28T15:23:29.000Z</time>
      </trkpt>
      <trkpt lat="48.59845" lon="-3.24153">
        <ele>153.2</ele>
        <time>2024-10-28T15:23:44.000Z</time>
      </trkpt>
      <trkpt lat="48.5978" lon="-3.24083">
        <ele>153.6</ele>
        <time>2024-10-28T15:24:00.000Z</time>
      </trkpt>
      <trkpt lat="48.5972" lon="-3.24005">
        <ele>154.2</ele>
        <time>2024-10-28T15:24:16.000Z</time>
      </trkpt>
      <trkpt lat="48.59659" lon="-3.23933">
        <ele>155</ele>
        <time>2024-10-28T15:24:32.000Z</time>
      </trkpt>
      <trkpt lat="48.59601" lon="-3.23883">
        <ele>155.2</ele>
        <time>2024-10-28T15:24:48.000Z</time>
      </trkpt>
      <trkpt lat="48.59537" lon="-3.23811">
        <ele>155.4</ele>
        <time>2024-10-28T15:25:05.000Z</time>
      </trkpt>
      <trkpt lat="48.59479" lon="-3.23738">
        <ele>156</ele>
        <time>2024-10-28T15:25:19.000Z</time>
      </trkpt>
      <trkpt lat="48.59412" lon="-3.23699">
        <ele>156.6</ele>
        <time>2024-10-28T15:25:32.000Z</time>
      </trkpt>
      <trkpt lat="48.59321" lon="-3.23682">
        <ele>157</ele>
        <time>2024-10-28T15:25:48.000Z</time>
      </trkpt>
      <trkpt lat="48.59234" lon="-3.23648">
        <ele>156.6</ele>
        <time>2024-10-28T15:26:03.000Z</time>
      </trkpt>
      <trkpt lat="48.59144" lon="-3.23606">
        <ele>159.2</ele>
        <time>2024-10-28T15:26:19.000Z</time>
      </trkpt>
      <trkpt lat="48.59082" lon="-3.23561">
        <ele>159.8</ele>
        <time>2024-10-28T15:26:35.000Z</time>
      </trkpt>
      <trkpt lat="48.59016" lon="-3.23532">
        <ele>160.2</ele>
        <time>2024-10-28T15:26:50.000Z</time>
      </trkpt>
      <trkpt lat="48.58954" lon="-3.23492">
        <ele>159.8</ele>
        <time>2024-10-28T15:27:06.000Z</time>
      </trkpt>
      <trkpt lat="48.5888" lon="-3.2346">
        <ele>160</ele>
        <time>2024-10-28T15:27:23.000Z</time>
      </trkpt>
      <trkpt lat="48.58818" lon="-3.23429">
        <ele>159.4</ele>
        <time>2024-10-28T15:27:34.000Z</time>
      </trkpt>
      <trkpt lat="48.58767" lon="-3.23344">
        <ele>159</ele>
        <time>2024-10-28T15:27:46.000Z</time>
      </trkpt>
      <trkpt lat="48.58704" lon="-3.23228">
        <ele>159</ele>
        <time>2024-10-28T15:28:02.000Z</time>
      </trkpt>
      <trkpt lat="48.58647" lon="-3.23143">
        <ele>158.4</ele>
        <time>2024-10-28T15:28:15.000Z</time>
      </trkpt>
      <trkpt lat="48.58602" lon="-3.23124">
        <ele>158.6</ele>
        <time>2024-10-28T15:28:23.000Z</time>
      </trkpt>
      <trkpt lat="48.58504" lon="-3.23102">
        <ele>158.8</ele>
        <time>2024-10-28T15:28:39.000Z</time>
      </trkpt>
      <trkpt lat="48.58428" lon="-3.23101">
        <ele>159.4</ele>
        <time>2024-10-28T15:28:52.000Z</time>
      </trkpt>
      <trkpt lat="48.58333" lon="-3.23108">
        <ele>159.2</ele>
        <time>2024-10-28T15:29:06.000Z</time>
      </trkpt>
      <trkpt lat="48.58224" lon="-3.23117">
        <ele>160.4</ele>
        <time>2024-10-28T15:29:22.000Z</time>
      </trkpt>
      <trkpt lat="48.58135" lon="-3.23145">
        <ele>164</ele>
        <time>2024-10-28T15:29:39.000Z</time>
      </trkpt>
      <trkpt lat="48.58085" lon="-3.23162">
        <ele>167</ele>
        <time>2024-10-28T15:29:55.000Z</time>
      </trkpt>
      <trkpt lat="48.58068" lon="-3.23153">
        <ele>167.4</ele>
        <time>2024-10-28T15:30:03.000Z</time>
      </trkpt>
      <trkpt lat="48.58023" lon="-3.23069">
        <ele>166.2</ele>
        <time>2024-10-28T15:30:18.000Z</time>
      </trkpt>
      <trkpt lat="48.57978" lon="-3.22953">
        <ele>165</ele>
        <time>2024-10-28T15:30:32.000Z</time>
      </trkpt>
      <trkpt lat="48.57928" lon="-3.22822">
        <ele>164.2</ele>
        <time>2024-10-28T15:30:48.000Z</time>
      </trkpt>
      <trkpt lat="48.57875" lon="-3.22698">
        <ele>163.6</ele>
        <time>2024-10-28T15:31:04.000Z</time>
      </trkpt>
      <trkpt lat="48.5782" lon="-3.22567">
        <ele>162.6</ele>
        <time>2024-10-28T15:31:20.000Z</time>
      </trkpt>
      <trkpt lat="48.57768" lon="-3.22444">
        <ele>161.4</ele>
        <time>2024-10-28T15:31:36.000Z</time>
      </trkpt>
      <trkpt lat="48.57715" lon="-3.22322">
        <ele>160.6</ele>
        <time>2024-10-28T15:31:52.000Z</time>
      </trkpt>
      <trkpt lat="48.5765" lon="-3.22198">
        <ele>158</ele>
        <time>2024-10-28T15:32:09.000Z</time>
      </trkpt>
      <trkpt lat="48.5757" lon="-3.22052">
        <ele>153.4</ele>
        <time>2024-10-28T15:32:25.000Z</time>
      </trkpt>
      <trkpt lat="48.57496" lon="-3.21906">
        <ele>149.4</ele>
        <time>2024-10-28T15:32:38.000Z</time>
      </trkpt>
      <trkpt lat="48.57434" lon="-3.21733">
        <ele>147.2</ele>
        <time>2024-10-28T15:32:54.000Z</time>
      </trkpt>
      <trkpt lat="48.57394" lon="-3.21612">
        <ele>148</ele>
        <time>2024-10-28T15:33:10.000Z</time>
      </trkpt>
      <trkpt lat="48.57381" lon="-3.21545">
        <ele>148.4</ele>
        <time>2024-10-28T15:33:21.000Z</time>
      </trkpt>
      <trkpt lat="48.57395" lon="-3.21466">
        <ele>148.2</ele>
        <time>2024-10-28T15:33:33.000Z</time>
      </trkpt>
      <trkpt lat="48.57383" lon="-3.2143">
        <ele>148</ele>
        <time>2024-10-28T15:33:39.000Z</time>
      </trkpt>
      <trkpt lat="48.57351" lon="-3.21404">
        <ele>146.8</ele>
        <time>2024-10-28T15:33:46.000Z</time>
      </trkpt>
      <trkpt lat="48.57348" lon="-3.21376">
        <ele>146</ele>
        <time>2024-10-28T15:33:50.000Z</time>
      </trkpt>
      <trkpt lat="48.57366" lon="-3.21339">
        <ele>146.8</ele>
        <time>2024-10-28T15:33:57.000Z</time>
      </trkpt>
      <trkpt lat="48.57364" lon="-3.21315">
        <ele>147.6</ele>
        <time>2024-10-28T15:34:01.000Z</time>
      </trkpt>
      <trkpt lat="48.57327" lon="-3.21277">
        <ele>149.8</ele>
        <time>2024-10-28T15:34:10.000Z</time>
      </trkpt>
      <trkpt lat="48.57274" lon="-3.21213">
        <ele>152.8</ele>
        <time>2024-10-28T15:34:26.000Z</time>
      </trkpt>
      <trkpt lat="48.57232" lon="-3.2114">
        <ele>153.6</ele>
        <time>2024-10-28T15:34:42.000Z</time>
      </trkpt>
      <trkpt lat="48.57193" lon="-3.21073">
        <ele>153.4</ele>
        <time>2024-10-28T15:34:58.000Z</time>
      </trkpt>
      <trkpt lat="48.57143" lon="-3.20998">
        <ele>152</ele>
        <time>2024-10-28T15:35:14.000Z</time>
      </trkpt>
      <trkpt lat="48.57077" lon="-3.2091">
        <ele>149.6</ele>
        <time>2024-10-28T15:35:30.000Z</time>
      </trkpt>
      <trkpt lat="48.57037" lon="-3.20839">
        <ele>148.6</ele>
        <time>2024-10-28T15:35:44.000Z</time>
      </trkpt>
      <trkpt lat="48.57004" lon="-3.20746">
        <ele>146.4</ele>
        <time>2024-10-28T15:36:00.000Z</time>
      </trkpt>
      <trkpt lat="48.56963" lon="-3.20635">
        <ele>141.6</ele>
        <time>2024-10-28T15:36:16.000Z</time>
      </trkpt>
      <trkpt lat="48.5692" lon="-3.20527">
        <ele>139.2</ele>
        <time>2024-10-28T15:36:32.000Z</time>
      </trkpt>
      <trkpt lat="48.56904" lon="-3.20441">
        <ele>137.4</ele>
        <time>2024-10-28T15:36:43.000Z</time>
      </trkpt>
      <trkpt lat="48.56911" lon="-3.20338">
        <ele>135</ele>
        <time>2024-10-28T15:36:57.000Z</time>
      </trkpt>
      <trkpt lat="48.56919" lon="-3.20237">
        <ele>131</ele>
        <time>2024-10-28T15:37:13.000Z</time>
      </trkpt>
      <trkpt lat="48.56908" lon="-3.2019">
        <ele>128.8</ele>
        <time>2024-10-28T15:37:22.000Z</time>
      </trkpt>
      <trkpt lat="48.56895" lon="-3.20163">
        <ele>128.2</ele>
        <time>2024-10-28T15:37:28.000Z</time>
      </trkpt>
      <trkpt lat="48.5691" lon="-3.20027">
        <ele>125.6</ele>
        <time>2024-10-28T15:37:40.000Z</time>
      </trkpt>
      <trkpt lat="48.56929" lon="-3.19973">
        <ele>125.2</ele>
        <time>2024-10-28T15:37:45.000Z</time>
      </trkpt>
      <trkpt lat="48.56961" lon="-3.19946">
        <ele>125.8</ele>
        <time>2024-10-28T15:37:50.000Z</time>
      </trkpt>
      <trkpt lat="48.57025" lon="-3.19927">
        <ele>131.2</ele>
        <time>2024-10-28T15:38:06.000Z</time>
      </trkpt>
      <trkpt lat="48.57063" lon="-3.19906">
        <ele>134</ele>
        <time>2024-10-28T15:38:22.000Z</time>
      </trkpt>
      <trkpt lat="48.57101" lon="-3.19878">
        <ele>135.6</ele>
        <time>2024-10-28T15:38:38.000Z</time>
      </trkpt>
      <trkpt lat="48.57127" lon="-3.19828">
        <ele>136.2</ele>
        <time>2024-10-28T15:38:49.000Z</time>
      </trkpt>
      <trkpt lat="48.57146" lon="-3.19743">
        <ele>136.2</ele>
        <time>2024-10-28T15:39:01.000Z</time>
      </trkpt>
      <trkpt lat="48.57184" lon="-3.19643">
        <ele>137</ele>
        <time>2024-10-28T15:39:15.000Z</time>
      </trkpt>
      <trkpt lat="48.57237" lon="-3.19574">
        <ele>140.4</ele>
        <time>2024-10-28T15:39:31.000Z</time>
      </trkpt>
      <trkpt lat="48.57288" lon="-3.19533">
        <ele>141.4</ele>
        <time>2024-10-28T15:39:47.000Z</time>
      </trkpt>
      <trkpt lat="48.57335" lon="-3.19493">
        <ele>141.2</ele>
        <time>2024-10-28T15:40:01.000Z</time>
      </trkpt>
      <trkpt lat="48.57352" lon="-3.19453">
        <ele>140.8</ele>
        <time>2024-10-28T15:40:07.000Z</time>
      </trkpt>
      <trkpt lat="48.5733" lon="-3.19345">
        <ele>138.6</ele>
        <time>2024-10-28T15:40:18.000Z</time>
      </trkpt>
      <trkpt lat="48.57302" lon="-3.19214">
        <ele>134</ele>
        <time>2024-10-28T15:40:30.000Z</time>
      </trkpt>
      <trkpt lat="48.57247" lon="-3.19112">
        <ele>130.8</ele>
        <time>2024-10-28T15:40:42.000Z</time>
      </trkpt>
      <trkpt lat="48.57207" lon="-3.19032">
        <ele>132.4</ele>
        <time>2024-10-28T15:40:53.000Z</time>
      </trkpt>
      <trkpt lat="48.57205" lon="-3.18957">
        <ele>134.8</ele>
        <time>2024-10-28T15:41:04.000Z</time>
      </trkpt>
      <trkpt lat="48.5723" lon="-3.18861">
        <ele>133.6</ele>
        <time>2024-10-28T15:41:17.000Z</time>
      </trkpt>
      <trkpt lat="48.57261" lon="-3.18818">
        <ele>133.4</ele>
        <time>2024-10-28T15:41:25.000Z</time>
      </trkpt>
      <trkpt lat="48.57324" lon="-3.18794">
        <ele>134.4</ele>
        <time>2024-10-28T15:41:39.000Z</time>
      </trkpt>
      <trkpt lat="48.57398" lon="-3.18779">
        <ele>137.2</ele>
        <time>2024-10-28T15:41:55.000Z</time>
      </trkpt>
      <trkpt lat="48.57467" lon="-3.18759">
        <ele>138.4</ele>
        <time>2024-10-28T15:42:11.000Z</time>
      </trkpt>
      <trkpt lat="48.57529" lon="-3.18725">
        <ele>138.4</ele>
        <time>2024-10-28T15:42:27.000Z</time>
      </trkpt>
      <trkpt lat="48.57585" lon="-3.18691">
        <ele>138.2</ele>
        <time>2024-10-28T15:42:43.000Z</time>
      </trkpt>
      <trkpt lat="48.57643" lon="-3.1866">
        <ele>138.4</ele>
        <time>2024-10-28T15:42:59.000Z</time>
      </trkpt>
      <trkpt lat="48.57682" lon="-3.18663">
        <ele>140</ele>
        <time>2024-10-28T15:43:10.000Z</time>
      </trkpt>
      <trkpt lat="48.57709" lon="-3.18676">
        <ele>141.4</ele>
        <time>2024-10-28T15:43:19.000Z</time>
      </trkpt>
      <trkpt lat="48.57706" lon="-3.18736">
        <ele>141.8</ele>
        <time>2024-10-28T15:43:30.000Z</time>
      </trkpt>
      <trkpt lat="48.57705" lon="-3.18801">
        <ele>142.2</ele>
        <time>2024-10-28T15:43:41.000Z</time>
      </trkpt>
      <trkpt lat="48.57686" lon="-3.18829">
        <ele>142.2</ele>
        <time>2024-10-28T15:43:49.000Z</time>
      </trkpt>
      <trkpt lat="48.57689" lon="-3.18892">
        <ele>143.6</ele>
        <time>2024-10-28T15:44:02.000Z</time>
      </trkpt>
      <trkpt lat="48.57693" lon="-3.1894">
        <ele>145</ele>
        <time>2024-10-28T15:44:13.000Z</time>
      </trkpt>
      <trkpt lat="48.57674" lon="-3.18948">
        <ele>145.8</ele>
        <time>2024-10-28T15:45:35.000Z</time>
      </trkpt>
    </trkseg>
  </trk>
</gpx>